Time;durP1;ratioP1;P1;durP2;ratioP2;P2;SDS_P1;SDS_P2;PMS_P1;PMS_P2;Temp;Humidity;BMP_temperature;BMP_pressure;BME280_temperature;BME280_humidity;BME280_pressure;Samples;Min_cycle;Max_cycle;Signal;HPM_P1;HPM_P2
2022/07/10 00:02:13;;;;;;;4.97;4.57;;;14.90;99.90;;;;;;5081957;28;20539;-48
2022/07/10 00:04:38;;;;;;;4.87;3.87;;;14.80;99.90;;;;;;5080215;28;20189;-50
2022/07/10 00:07:04;;;;;;;5.37;3.80;;;14.90;99.90;;;;;;5083732;28;20562;-50
2022/07/10 00:09:30;;;;;;;7.40;3.97;;;14.90;99.90;;;;;;5082981;28;20577;-54
2022/07/10 00:11:56;;;;;;;3.83;3.10;;;14.90;99.90;;;;;;5094006;28;20184;-50
2022/07/10 00:14:22;;;;;;;5.33;3.17;;;14.90;99.90;;;;;;5084459;28;20439;-50
2022/07/10 00:16:47;;;;;;;4.83;3.33;;;14.80;99.90;;;;;;5070005;28;20466;-52
2022/07/10 00:19:13;;;;;;;3.70;3.23;;;14.80;99.90;;;;;;5082554;28;20234;-50
2022/07/10 00:21:38;;;;;;;5.10;2.60;;;14.90;99.90;;;;;;5088299;28;20189;-54
2022/07/10 00:24:04;;;;;;;3.67;2.90;;;14.80;99.90;;;;;;5096581;28;21067;-51
2022/07/10 00:26:30;;;;;;;3.13;2.67;;;14.80;99.90;;;;;;5089834;28;20227;-51
2022/07/10 00:28:56;;;;;;;3.93;3.10;;;14.80;99.90;;;;;;5087652;28;20466;-56
2022/07/10 00:31:21;;;;;;;4.30;3.20;;;14.80;99.90;;;;;;5086280;28;20249;-52
2022/07/10 00:33:48;;;;;;;3.27;2.93;;;14.80;99.90;;;;;;5085169;28;20189;-53
2022/07/10 00:36:14;;;;;;;5.30;2.80;;;14.70;99.90;;;;;;5089450;28;20208;-50
2022/07/10 00:38:39;;;;;;;4.80;2.90;;;14.70;99.90;;;;;;5093073;28;20865;-53
2022/07/10 00:41:05;;;;;;;4.80;2.83;;;14.70;99.90;;;;;;5101570;28;20441;-49
2022/07/10 00:43:52;;;;;;;3.60;2.80;;;14.60;99.90;;;;;;5089593;28;20185;-52
2022/07/10 00:46:20;;;;;;;3.97;3.27;;;14.50;99.90;;;;;;5087341;28;20205;-51
2022/07/10 00:48:46;;;;;;;4.60;2.90;;;14.40;99.90;;;;;;5087905;28;20926;-54
2022/07/10 00:51:12;;;;;;;4.13;2.90;;;14.30;99.90;;;;;;5090029;28;20426;-49
2022/07/10 00:53:39;;;;;;;4.00;2.90;;;14.20;99.90;;;;;;5085980;28;20531;-52
2022/07/10 00:56:06;;;;;;;4.03;3.17;;;14.20;99.90;;;;;;5092577;28;20798;-51
2022/07/10 00:58:33;;;;;;;3.77;3.07;;;14.20;99.90;;;;;;5087365;28;20434;-53
2022/07/10 01:01:00;;;;;;;3.40;3.03;;;14.10;99.90;;;;;;5088682;28;20513;-49
2022/07/10 01:03:25;;;;;;;4.73;3.03;;;14.10;99.90;;;;;;5089126;28;20442;-48
2022/07/10 01:05:51;;;;;;;3.20;2.77;;;14.20;99.90;;;;;;5088243;28;20520;-50
2022/07/10 01:08:17;;;;;;;3.90;3.17;;;14.10;99.90;;;;;;5070792;28;20283;-51
2022/07/10 01:10:43;;;;;;;3.17;2.90;;;14.10;99.90;;;;;;5077519;28;20209;-53
2022/07/10 01:13:08;;;;;;;3.97;2.90;;;14.20;99.90;;;;;;5078607;28;20871;-54
2022/07/10 01:15:35;;;;;;;5.50;3.67;;;14.20;99.90;;;;;;5069897;28;21270;-49
2022/07/10 01:18:01;;;;;;;5.57;4.80;;;14.10;99.90;;;;;;5076485;28;20199;-49
2022/07/10 01:20:33;;;;;;;4.00;2.80;;;14.10;99.90;;;;;;5088362;28;20435;-50
2022/07/10 01:22:59;;;;;;;4.20;3.13;;;14.10;99.90;;;;;;5071752;28;20583;-48
2022/07/10 01:25:25;;;;;;;5.57;2.80;;;14.10;99.90;;;;;;5099230;28;20553;-52
2022/07/10 01:27:51;;;;;;;9.60;3.00;;;14.10;99.90;;;;;;5080666;28;20550;-50
2022/07/10 01:30:19;;;;;;;4.00;2.60;;;14.20;99.90;;;;;;5084634;28;20181;-54
2022/07/10 01:32:45;;;;;;;3.67;2.80;;;14.20;99.90;;;;;;5069242;28;20438;-53
2022/07/10 01:35:11;;;;;;;3.03;2.70;;;14.20;99.90;;;;;;5088746;28;20415;-51
2022/07/10 01:37:37;;;;;;;4.90;3.30;;;14.20;99.90;;;;;;5086348;28;20844;-49
2022/07/10 01:40:04;;;;;;;4.03;2.80;;;14.20;99.90;;;;;;5091851;28;20439;-54
2022/07/10 01:42:29;;;;;;;2.80;2.60;;;14.20;99.90;;;;;;5086644;28;20483;-53
2022/07/10 01:44:55;;;;;;;2.60;2.40;;;14.20;99.90;;;;;;5092013;28;20431;-50
2022/07/10 01:47:24;;;;;;;3.37;2.80;;;14.30;99.90;;;;;;5084723;28;20223;-52
2022/07/10 01:49:50;;;;;;;4.47;2.90;;;14.30;99.90;;;;;;5095486;28;20211;-54
2022/07/10 01:52:16;;;;;;;3.57;2.83;;;14.20;99.90;;;;;;5094348;28;20431;-54
2022/07/10 01:54:42;;;;;;;4.20;3.23;;;14.20;99.90;;;;;;5092546;28;20443;-54
2022/07/10 01:57:07;;;;;;;3.80;2.80;;;14.20;99.90;;;;;;5091865;28;20204;-53
2022/07/10 01:59:33;;;;;;;3.83;2.63;;;14.20;99.90;;;;;;5086312;28;20324;-52
2022/07/10 02:01:58;;;;;;;3.13;2.83;;;14.10;99.90;;;;;;5088077;28;20239;-52
2022/07/10 02:04:42;;;;;;;5.30;2.70;;;14.10;99.90;;;;;;5079203;28;20208;-50
2022/07/10 02:07:21;;;;;;;3.37;2.60;;;14.10;99.90;;;;;;5086349;28;20209;-50
2022/07/10 02:09:47;;;;;;;3.87;2.70;;;14.20;99.90;;;;;;5081397;28;20504;-51
2022/07/10 02:12:14;;;;;;;2.90;2.60;;;14.20;99.90;;;;;;5091888;28;20422;-52
2022/07/10 02:14:40;;;;;;;3.97;2.40;;;14.20;99.90;;;;;;5089152;28;20193;-53
2022/07/10 02:17:07;;;;;;;2.87;2.57;;;14.20;99.90;;;;;;5080360;28;20931;-51
2022/07/10 02:19:33;;;;;;;5.40;2.80;;;14.20;99.90;;;;;;5088541;28;20442;-55
2022/07/10 02:22:00;;;;;;;2.83;2.53;;;14.20;99.90;;;;;;5089241;28;20450;-53
2022/07/10 02:24:26;;;;;;;3.60;2.70;;;14.20;99.90;;;;;;5078752;28;20442;-50
2022/07/10 02:26:52;;;;;;;3.90;3.27;;;14.30;99.90;;;;;;5091907;28;20481;-56
2022/07/10 02:29:18;;;;;;;2.80;2.60;;;14.30;99.90;;;;;;5091032;28;20465;-53
2022/07/10 02:31:44;;;;;;;3.03;2.63;;;14.30;99.90;;;;;;5090968;28;20786;-48
2022/07/10 02:34:11;;;;;;;3.60;2.83;;;14.30;99.90;;;;;;5091556;28;20253;-52
2022/07/10 02:36:38;;;;;;;3.73;2.90;;;14.40;99.90;;;;;;5090537;28;20192;-50
2022/07/10 02:39:06;;;;;;;2.67;2.33;;;14.30;99.90;;;;;;5095201;28;20449;-52
2022/07/10 02:41:31;;;;;;;4.60;3.50;;;14.40;99.90;;;;;;5092207;28;20502;-54
2022/07/10 02:43:57;;;;;;;5.50;2.73;;;14.30;99.90;;;;;;5089603;28;20530;-50
2022/07/10 02:46:23;;;;;;;4.57;3.20;;;14.30;99.90;;;;;;5088757;28;20278;-53
2022/07/10 02:48:48;;;;;;;3.00;2.50;;;14.30;99.90;;;;;;5087674;28;20239;-49
2022/07/10 02:51:14;;;;;;;3.20;2.90;;;14.40;99.90;;;;;;5091809;28;20189;-50
2022/07/10 02:53:40;;;;;;;2.90;2.70;;;14.30;99.90;;;;;;5088553;28;20541;-52
2022/07/10 02:56:06;;;;;;;4.57;3.00;;;14.30;99.90;;;;;;5077717;28;20939;-53
2022/07/10 02:58:33;;;;;;;2.97;2.77;;;14.40;99.90;;;;;;5094713;28;20658;-52
2022/07/10 03:00:59;;;;;;;3.27;2.90;;;14.30;99.90;;;;;;5082780;28;20239;-51
2022/07/10 03:03:25;;;;;;;5.93;2.80;;;14.30;99.90;;;;;;5089886;28;20812;-53
2022/07/10 03:05:50;;;;;;;3.40;3.00;;;14.30;99.90;;;;;;5086696;28;20656;-51
2022/07/10 03:08:16;;;;;;;3.60;3.03;;;14.30;99.90;;;;;;5089552;28;20429;-52
2022/07/10 03:10:42;;;;;;;3.20;2.70;;;14.30;99.90;;;;;;5089442;28;20185;-52
2022/07/10 03:13:07;;;;;;;3.27;3.07;;;14.30;99.90;;;;;;5094780;28;20193;-54
2022/07/10 03:15:33;;;;;;;3.30;2.90;;;14.40;99.90;;;;;;5090249;28;20189;-51
2022/07/10 03:17:58;;;;;;;2.93;2.57;;;14.40;99.90;;;;;;5091726;28;20251;-51
2022/07/10 03:20:24;;;;;;;2.83;2.57;;;14.30;99.90;;;;;;5089835;28;20177;-50
2022/07/10 03:22:50;;;;;;;3.30;3.00;;;14.30;99.90;;;;;;5092997;28;20188;-53
2022/07/10 03:25:16;;;;;;;4.37;2.90;;;14.30;99.90;;;;;;5070222;28;20691;-54
2022/07/10 03:27:41;;;;;;;7.13;2.77;;;14.30;99.90;;;;;;5089697;28;20181;-54
2022/07/10 03:30:08;;;;;;;5.97;2.60;;;14.20;99.90;;;;;;5089322;28;20161;-49
2022/07/10 03:32:33;;;;;;;3.10;2.80;;;14.30;99.90;;;;;;5081884;28;20242;-55
2022/07/10 03:35:00;;;;;;;5.20;3.33;;;14.20;99.90;;;;;;5090599;28;20407;-53
2022/07/10 03:37:25;;;;;;;3.30;3.00;;;14.30;99.90;;;;;;5071202;28;20185;-54
2022/07/10 03:39:51;;;;;;;3.53;3.00;;;14.30;99.90;;;;;;5091016;28;20795;-54
2022/07/10 03:42:17;;;;;;;3.20;2.90;;;14.20;99.90;;;;;;5086969;28;20285;-53
2022/07/10 03:44:42;;;;;;;4.17;3.07;;;14.30;99.90;;;;;;5093777;28;20900;-51
2022/07/10 03:47:08;;;;;;;4.00;3.07;;;14.20;99.90;;;;;;5086336;28;20204;-52
2022/07/10 03:49:34;;;;;;;3.20;2.90;;;14.30;99.90;;;;;;5084493;28;20504;-53
2022/07/10 03:52:01;;;;;;;3.47;3.13;;;14.30;99.90;;;;;;5092732;28;20211;-54
2022/07/10 03:54:27;;;;;;;3.10;2.80;;;14.30;99.90;;;;;;5107160;28;20205;-52
2022/07/10 03:59:37;;;;;;;3.30;3.00;;;14.30;99.90;;;;;;5089132;28;20527;-52
2022/07/10 04:02:03;;;;;;;3.43;3.13;;;14.30;99.90;;;;;;5102900;28;20943;-53
2022/07/10 04:04:29;;;;;;;3.17;2.73;;;14.40;99.90;;;;;;5088929;28;20182;-53
2022/07/10 04:06:54;;;;;;;3.40;2.90;;;14.30;99.90;;;;;;5090438;28;20744;-49
2022/07/10 04:09:20;;;;;;;3.27;2.80;;;14.40;99.90;;;;;;5086765;28;20204;-49
2022/07/10 04:11:46;;;;;;;5.90;2.90;;;14.40;99.90;;;;;;5090120;28;20216;-53
2022/07/10 04:14:11;;;;;;;4.67;3.07;;;14.40;99.90;;;;;;5094521;28;20477;-53
2022/07/10 04:16:37;;;;;;;5.47;3.20;;;14.40;99.90;;;;;;5078044;28;20202;-52
2022/07/10 04:19:02;;;;;;;4.07;3.07;;;14.40;99.90;;;;;;5090139;28;20203;-52
2022/07/10 04:21:28;;;;;;;6.00;2.97;;;14.40;99.90;;;;;;5088086;28;20628;-51
2022/07/10 04:23:54;;;;;;;2.67;2.47;;;14.40;99.90;;;;;;5097506;28;20181;-55
2022/07/10 04:26:19;;;;;;;3.77;3.17;;;14.40;99.90;;;;;;5069845;28;20693;-53
2022/07/10 04:28:45;;;;;;;3.50;2.63;;;14.40;99.90;;;;;;5080886;28;20203;-55
2022/07/10 04:31:11;;;;;;;3.00;2.80;;;14.50;99.90;;;;;;5074877;28;20225;-48
2022/07/10 04:33:36;;;;;;;4.83;2.90;;;14.50;99.90;;;;;;5082981;28;20271;-49
2022/07/10 04:36:02;;;;;;;4.53;2.60;;;14.50;99.90;;;;;;5089539;28;20656;-51
2022/07/10 04:38:28;;;;;;;3.47;2.90;;;14.50;99.90;;;;;;5082737;28;20733;-55
2022/07/10 04:40:54;;;;;;;3.67;3.20;;;14.50;99.90;;;;;;5090077;28;20210;-56
2022/07/10 04:43:20;;;;;;;2.73;2.50;;;14.50;99.90;;;;;;5088345;28;20945;-50
2022/07/10 04:45:46;;;;;;;3.40;2.67;;;14.60;99.90;;;;;;5078483;28;20520;-49
2022/07/10 04:48:12;;;;;;;4.27;2.40;;;14.70;99.90;;;;;;5084028;28;20433;-55
2022/07/10 04:50:37;;;;;;;3.10;2.60;;;14.70;99.90;;;;;;5079849;28;20193;-54
2022/07/10 04:53:03;;;;;;;4.80;2.90;;;14.80;99.90;;;;;;5090455;28;20177;-56
2022/07/10 04:55:29;;;;;;;2.87;2.50;;;14.80;99.90;;;;;;5095602;28;20188;-50
2022/07/10 04:57:55;;;;;;;5.70;2.80;;;14.90;99.90;;;;;;5088513;28;20431;-49
2022/07/10 05:00:20;;;;;;;4.63;2.90;;;14.90;99.90;;;;;;5076348;28;20244;-53
2022/07/10 05:02:46;;;;;;;4.47;3.07;;;14.90;99.90;;;;;;5078061;28;20230;-54
2022/07/10 05:05:12;;;;;;;2.67;2.43;;;15.00;99.90;;;;;;5086802;28;20181;-55
2022/07/10 05:07:37;;;;;;;7.50;3.60;;;15.00;99.90;;;;;;5094526;28;20185;-55
2022/07/10 05:10:03;;;;;;;2.93;2.53;;;15.10;99.90;;;;;;5089605;28;20227;-50
2022/07/10 05:12:29;;;;;;;4.67;2.90;;;15.20;99.90;;;;;;5078128;28;20189;-50
2022/07/10 05:14:55;;;;;;;7.57;3.13;;;15.10;99.90;;;;;;5086769;28;20452;-49
2022/07/10 05:17:21;;;;;;;5.40;2.80;;;15.20;99.90;;;;;;5086132;28;20185;-50
2022/07/10 05:19:46;;;;;;;10.40;4.00;;;15.20;99.90;;;;;;5081666;28;21128;-50
2022/07/10 05:22:12;;;;;;;3.77;2.80;;;15.20;99.90;;;;;;5075859;28;20282;-51
2022/07/10 05:24:38;;;;;;;4.07;3.17;;;15.30;99.90;;;;;;5082813;28;20193;-53
2022/07/10 05:27:03;;;;;;;3.40;3.10;;;15.20;99.90;;;;;;5085064;28;20201;-53
2022/07/10 05:29:29;;;;;;;3.37;3.00;;;15.30;99.90;;;;;;5085383;28;20196;-55
2022/07/10 05:31:55;;;;;;;3.53;2.97;;;15.30;99.90;;;;;;5080425;28;20440;-55
2022/07/10 05:34:20;;;;;;;3.90;3.40;;;15.20;99.90;;;;;;5080696;28;20177;-50
2022/07/10 05:36:46;;;;;;;5.97;2.97;;;15.20;99.90;;;;;;5084490;28;20182;-52
2022/07/10 05:39:12;;;;;;;3.17;2.70;;;15.20;99.90;;;;;;5095735;28;20484;-55
2022/07/10 05:41:37;;;;;;;4.17;3.13;;;15.20;99.90;;;;;;5086319;28;20200;-55
2022/07/10 05:44:03;;;;;;;3.63;2.80;;;15.20;99.90;;;;;;5089368;28;20677;-53
2022/07/10 05:46:29;;;;;;;3.77;3.10;;;15.30;99.90;;;;;;5084709;28;20204;-53
2022/07/10 05:48:54;;;;;;;3.13;2.80;;;15.20;99.90;;;;;;5087610;28;20185;-49
2022/07/10 05:51:20;;;;;;;3.63;3.30;;;15.30;99.90;;;;;;5087642;28;20433;-52
2022/07/10 05:53:46;;;;;;;4.70;3.47;;;15.30;99.90;;;;;;5087024;28;20184;-51
2022/07/10 05:56:11;;;;;;;4.47;3.47;;;15.30;99.90;;;;;;5087254;28;20181;-53
2022/07/10 05:58:37;;;;;;;8.23;3.30;;;15.20;99.90;;;;;;5089146;28;20627;-54
2022/07/10 06:01:03;;;;;;;7.30;3.20;;;15.30;99.90;;;;;;5091493;28;20401;-52
2022/07/10 06:03:28;;;;;;;3.47;3.00;;;15.20;99.90;;;;;;5087743;28;20201;-53
2022/07/10 06:05:54;;;;;;;3.23;2.90;;;15.20;99.90;;;;;;5081664;28;20211;-50
2022/07/10 06:08:20;;;;;;;3.50;2.60;;;15.40;99.90;;;;;;5076164;28;20639;-54
2022/07/10 06:10:47;;;;;;;4.53;2.60;;;15.40;99.90;;;;;;5087790;28;20244;-51
2022/07/10 06:13:13;;;;;;;2.80;2.60;;;15.50;99.90;;;;;;5076868;28;20462;-52
2022/07/10 06:15:39;;;;;;;4.20;2.67;;;15.40;99.90;;;;;;5086438;28;20205;-54
2022/07/10 06:18:04;;;;;;;2.30;2.20;;;15.50;99.90;;;;;;5083472;28;21025;-52
2022/07/10 06:20:31;;;;;;;3.27;2.60;;;15.50;99.90;;;;;;5084296;28;20215;-50
2022/07/10 06:22:57;;;;;;;2.73;2.53;;;15.50;99.90;;;;;;5078454;28;20189;-56
2022/07/10 06:25:23;;;;;;;2.53;2.33;;;15.60;99.90;;;;;;5072448;28;21095;-53
2022/07/10 06:27:48;;;;;;;3.17;2.97;;;15.60;99.90;;;;;;5064087;28;20443;-55
2022/07/10 06:30:14;;;;;;;4.70;3.20;;;15.50;99.90;;;;;;5064109;28;20186;-50
2022/07/10 06:32:40;;;;;;;3.00;2.80;;;15.40;99.90;;;;;;5073952;28;20238;-54
2022/07/10 06:35:07;;;;;;;3.10;2.80;;;15.50;99.90;;;;;;5079923;28;20440;-53
2022/07/10 06:37:33;;;;;;;4.00;3.20;;;15.50;99.90;;;;;;5085303;28;20782;-53
2022/07/10 06:39:58;;;;;;;3.67;2.97;;;15.50;99.90;;;;;;5088642;28;20822;-55
2022/07/10 06:42:24;;;;;;;3.23;3.00;;;15.80;99.90;;;;;;5089311;28;20437;-52
2022/07/10 06:44:50;;;;;;;3.20;3.00;;;15.90;99.90;;;;;;5082429;28;20618;-52
2022/07/10 06:50:06;;;;;;;3.67;3.10;;;16.00;99.90;;;;;;5091670;28;20194;-52
2022/07/10 06:52:33;;;;;;;3.20;3.00;;;16.00;99.90;;;;;;5089672;28;20932;-53
2022/07/10 06:54:59;;;;;;;3.00;2.80;;;16.10;99.90;;;;;;5089893;28;20441;-52
2022/07/10 06:57:25;;;;;;;3.07;2.87;;;16.20;99.90;;;;;;5080101;28;20442;-54
2022/07/10 06:59:51;;;;;;;3.57;3.27;;;16.20;99.90;;;;;;5084382;28;20487;-51
2022/07/10 07:02:17;;;;;;;3.50;2.83;;;16.10;99.90;;;;;;5090685;28;20182;-56
2022/07/10 07:04:44;;;;;;;2.80;2.70;;;16.10;99.90;;;;;;5091710;28;20438;-51
2022/07/10 07:07:10;;;;;;;3.27;3.07;;;16.10;99.90;;;;;;5099258;28;20282;-51
2022/07/10 07:09:36;;;;;;;3.33;2.93;;;16.00;99.90;;;;;;5093674;28;20440;-54
2022/07/10 07:12:01;;;;;;;3.00;2.80;;;16.10;99.90;;;;;;5090980;28;20211;-53
2022/07/10 07:14:27;;;;;;;2.97;2.77;;;16.20;99.90;;;;;;5091969;28;20629;-52
2022/07/10 07:17:01;;;;;;;3.10;2.90;;;16.30;99.90;;;;;;5090943;28;20187;-48
2022/07/10 07:23:09;;;;;;;2.53;2.33;;;16.40;99.90;;;;;;5100857;28;20187;-51
2022/07/10 07:25:04;;;;;;;3.00;2.80;;;16.30;99.90;;;;;;5091337;28;20520;-56
2022/07/10 07:27:29;;;;;;;3.00;2.80;;;16.20;99.90;;;;;;5090371;28;20462;-53
2022/07/10 07:29:55;;;;;;;2.90;2.70;;;16.20;99.90;;;;;;5088597;28;20793;-55
2022/07/10 07:32:20;;;;;;;2.70;2.50;;;16.10;99.90;;;;;;5089836;28;20186;-49
2022/07/10 07:34:46;;;;;;;3.10;2.80;;;16.20;99.90;;;;;;5092261;28;20555;-51
2022/07/10 07:37:12;;;;;;;3.17;2.77;;;16.40;99.90;;;;;;5083574;28;20564;-54
2022/07/10 07:39:37;;;;;;;2.77;2.57;;;16.50;99.90;;;;;;5104698;28;20518;-53
2022/07/10 07:42:03;;;;;;;3.40;3.10;;;16.40;99.90;;;;;;5110928;28;20169;-50
2022/07/10 07:44:29;;;;;;;3.10;2.63;;;16.40;99.90;;;;;;5101335;28;20192;-51
2022/07/10 07:46:55;;;;;;;2.87;2.67;;;16.50;99.90;;;;;;5071154;28;20460;-53
2022/07/10 07:49:21;;;;;;;3.03;2.83;;;16.50;99.90;;;;;;5088119;28;20175;-49
2022/07/10 07:51:48;;;;;;;3.20;2.90;;;16.60;99.90;;;;;;5089246;28;20960;-51
2022/07/10 07:54:15;;;;;;;2.97;2.77;;;16.70;99.90;;;;;;5090225;28;20535;-50
2022/07/10 07:56:41;;;;;;;3.30;3.00;;;16.70;99.90;;;;;;5089911;28;20495;-49
2022/07/10 07:59:06;;;;;;;2.77;2.63;;;16.80;99.90;;;;;;5087835;28;20931;-51
2022/07/10 08:01:32;;;;;;;2.80;2.60;;;16.80;99.90;;;;;;5090107;28;20190;-51
2022/07/10 08:03:57;;;;;;;2.33;2.13;;;16.80;99.90;;;;;;5089968;28;20185;-54
2022/07/10 08:06:24;;;;;;;3.00;2.80;;;16.80;99.90;;;;;;5086455;28;20704;-51
2022/07/10 08:08:49;;;;;;;2.90;2.70;;;16.80;99.90;;;;;;5091187;28;20527;-54
2022/07/10 08:11:15;;;;;;;3.47;2.70;;;17.00;99.90;;;;;;5086652;28;20195;-48
2022/07/10 08:13:42;;;;;;;3.17;2.97;;;17.00;99.90;;;;;;5089879;28;20663;-48
2022/07/10 08:16:08;;;;;;;2.70;2.60;;;17.30;99.90;;;;;;5067322;28;20175;-51
2022/07/10 08:18:34;;;;;;;3.00;2.70;;;17.40;99.90;;;;;;5085662;28;20954;-52
2022/07/10 08:21:00;;;;;;;3.10;2.90;;;17.60;99.30;;;;;;5087212;28;20283;-49
2022/07/10 08:23:25;;;;;;;3.20;2.90;;;17.90;97.50;;;;;;5064914;28;20177;-52
2022/07/10 08:25:51;;;;;;;3.27;3.07;;;18.10;96.60;;;;;;5088315;28;20216;-51
2022/07/10 08:28:16;;;;;;;3.53;3.00;;;18.20;96.00;;;;;;5088324;28;20184;-53
2022/07/10 08:30:43;;;;;;;3.53;3.20;;;18.30;96.20;;;;;;5087273;28;20189;-48
2022/07/10 08:33:09;;;;;;;3.80;3.60;;;18.30;95.10;;;;;;5086864;28;20184;-52
2022/07/10 08:35:35;;;;;;;3.40;3.10;;;18.30;95.00;;;;;;5086115;28;20487;-52
2022/07/10 08:38:01;;;;;;;3.50;3.20;;;18.30;94.80;;;;;;5090912;28;20876;-51
2022/07/10 08:40:33;;;;;;;2.70;2.50;;;18.20;94.90;;;;;;5094302;28;20237;-51
2022/07/10 08:42:59;;;;;;;3.30;3.10;;;18.30;94.50;;;;;;5079241;28;20470;-50
2022/07/10 08:45:27;;;;;;;4.20;3.90;;;18.30;93.50;;;;;;5069678;28;20545;-48
2022/07/10 08:47:53;;;;;;;3.97;3.37;;;18.20;93.40;;;;;;5084660;28;20229;-53
2022/07/10 08:50:24;;;;;;;3.40;3.20;;;18.30;93.10;;;;;;5075494;28;20867;-53
2022/07/10 08:53:00;;;;;;;3.03;2.83;;;18.40;92.40;;;;;;5081104;28;20454;-51
2022/07/10 08:55:27;;;;;;;3.83;3.53;;;18.60;91.60;;;;;;5073253;28;20431;-52
2022/07/10 08:57:55;;;;;;;4.17;3.63;;;18.50;92.40;;;;;;5085889;28;20544;-52
2022/07/10 09:00:20;;;;;;;3.60;3.30;;;18.50;91.40;;;;;;5062127;28;20480;-53
2022/07/10 09:02:46;;;;;;;3.77;3.47;;;18.50;91.20;;;;;;5067556;28;20964;-53
2022/07/10 09:05:11;;;;;;;3.30;3.10;;;18.40;91.40;;;;;;5071289;28;20207;-50
2022/07/10 09:07:41;;;;;;;3.80;3.50;;;18.20;92.10;;;;;;5076138;28;20855;-51
2022/07/10 09:10:08;;;;;;;3.70;3.50;;;17.70;93.60;;;;;;5047237;28;20185;-54
2022/07/10 09:12:56;;;;;;;3.80;3.50;;;17.40;96.50;;;;;;5073272;28;20441;-53
2022/07/10 09:15:32;;;;;;;3.00;2.80;;;17.00;98.20;;;;;;5060295;28;20448;-54
2022/07/10 09:18:08;;;;;;;4.00;3.70;;;16.70;99.80;;;;;;5054570;28;20442;-51
2022/07/10 09:20:40;;;;;;;4.53;3.60;;;16.50;99.70;;;;;;5079282;28;20431;-50
2022/07/10 09:23:22;;;;;;;3.57;3.37;;;16.50;98.60;;;;;;5068171;28;20488;-53
2022/07/10 09:25:50;;;;;;;5.70;3.70;;;16.60;98.30;;;;;;5078794;28;20467;-50
2022/07/10 09:28:25;;;;;;;3.50;3.20;;;16.90;98.80;;;;;;5081748;28;20475;-51
2022/07/10 09:30:51;;;;;;;3.60;3.40;;;17.30;96.30;;;;;;5080627;28;20943;-51
2022/07/10 09:33:26;;;;;;;4.10;3.80;;;17.40;95.60;;;;;;5087678;28;20430;-56
2022/07/10 09:36:05;;;;;;;4.07;3.60;;;17.40;94.80;;;;;;5082802;28;20698;-50
2022/07/10 09:38:43;;;;;;;3.47;3.17;;;17.70;95.00;;;;;;5085259;28;20908;-50
2022/07/10 09:41:12;;;;;;;3.80;3.60;;;17.90;93.90;;;;;;5086816;28;20437;-53
2022/07/10 09:43:58;;;;;;;3.53;3.33;;;18.30;93.20;;;;;;5069001;28;20513;-50
2022/07/10 09:46:31;;;;;;;3.90;3.70;;;18.70;91.70;;;;;;5075070;28;20469;-50
2022/07/10 09:49:03;;;;;;;3.97;3.63;;;18.90;87.20;;;;;;5083455;28;20438;-52
2022/07/10 09:51:35;;;;;;;4.90;4.50;;;18.70;83.60;;;;;;5086216;28;20430;-47
2022/07/10 09:54:03;;;;;;;3.60;3.40;;;18.50;84.90;;;;;;5087563;28;20419;-47
2022/07/10 09:56:39;;;;;;;4.03;3.80;;;18.10;86.50;;;;;;5084213;28;20427;-52
2022/07/10 09:59:09;;;;;;;6.30;3.77;;;18.00;88.40;;;;;;5090056;28;20426;-48
2022/07/10 10:01:37;;;;;;;5.20;3.70;;;17.90;90.10;;;;;;5088816;28;20439;-53
2022/07/10 10:04:04;;;;;;;3.80;3.50;;;18.00;90.70;;;;;;5088004;28;20422;-53
2022/07/10 10:06:31;;;;;;;4.10;3.40;;;18.20;90.60;;;;;;5076357;28;20469;-50
2022/07/10 10:09:11;;;;;;;4.77;4.10;;;18.40;90.90;;;;;;5093137;28;20787;-53
2022/07/10 10:11:39;;;;;;;3.80;3.50;;;18.50;89.30;;;;;;5082733;28;20509;-52
2022/07/10 10:14:08;;;;;;;3.90;3.60;;;18.60;88.00;;;;;;5090266;28;20436;-47
2022/07/10 10:16:34;;;;;;;3.90;3.63;;;18.80;88.60;;;;;;5087908;28;20996;-53
2022/07/10 10:21:46;;;;;;;3.30;3.10;;;19.00;83.40;;;;;;5075074;28;20457;-51
2022/07/10 10:24:14;;;;;;;3.63;3.33;;;19.40;76.10;;;;;;5078813;28;20422;-53
2022/07/10 10:26:40;;;;;;;3.40;2.90;;;19.80;73.50;;;;;;5090026;28;20274;-52
2022/07/10 10:29:07;;;;;;;3.13;2.93;;;20.00;65.00;;;;;;5089619;28;20525;-51
2022/07/10 10:31:34;;;;;;;3.40;3.10;;;19.80;66.30;;;;;;5086502;28;20437;-47
2022/07/10 10:34:00;;;;;;;3.50;3.20;;;19.90;66.80;;;;;;5090510;28;20443;-50
2022/07/10 10:36:47;;;;;;;3.70;3.40;;;20.00;68.00;;;;;;5080721;28;20521;-54
2022/07/10 10:39:19;;;;;;;5.30;3.70;;;20.10;65.20;;;;;;5079844;28;20438;-51
2022/07/10 10:41:51;;;;;;;4.13;3.83;;;19.80;65.00;;;;;;5082318;28;20989;-49
2022/07/10 10:44:16;;;;;;;3.80;3.50;;;19.60;67.10;;;;;;5090702;28;20440;-54
2022/07/10 10:46:54;;;;;;;4.27;3.90;;;19.10;69.60;;;;;;5084768;28;20519;-49
2022/07/10 10:49:24;;;;;;;5.13;3.80;;;19.00;70.40;;;;;;5090414;28;20634;-52
2022/07/10 10:52:08;;;;;;;3.80;3.60;;;19.00;72.50;;;;;;5080110;28;20438;-50
2022/07/10 10:55:07;;;;;;;4.00;3.70;;;19.10;70.40;;;;;;5084381;28;20447;-50
2022/07/10 10:57:36;;;;;;;3.37;3.17;;;18.80;69.80;;;;;;5078033;28;20443;-52
2022/07/10 11:00:07;;;;;;;4.13;3.83;;;18.80;71.40;;;;;;5092378;28;20481;-53
2022/07/10 11:02:38;;;;;;;3.97;3.33;;;18.80;71.10;;;;;;5091212;28;20996;-50
2022/07/10 11:05:21;;;;;;;4.10;3.90;;;18.80;70.50;;;;;;5087228;28;20564;-49
2022/07/10 11:08:00;;;;;;;5.60;4.43;;;18.80;71.60;;;;;;5082540;28;20513;-54
2022/07/10 11:10:29;;;;;;;6.60;3.60;;;19.10;71.30;;;;;;5078854;28;20438;-54
2022/07/10 11:13:03;;;;;;;4.13;3.73;;;19.40;71.40;;;;;;5090109;28;20407;-53
2022/07/10 11:15:30;;;;;;;3.97;3.67;;;19.60;70.30;;;;;;5086412;28;20438;-53
2022/07/10 11:17:57;;;;;;;3.80;3.50;;;19.60;68.10;;;;;;5083634;28;20981;-50
2022/07/10 11:20:23;;;;;;;3.73;3.53;;;19.30;67.10;;;;;;5068192;28;20479;-52
2022/07/10 11:22:57;;;;;;;4.40;4.00;;;19.10;67.30;;;;;;5088590;28;20451;-49
2022/07/10 11:25:35;;;;;;;3.53;3.33;;;18.80;67.70;;;;;;5102868;28;20448;-47
2022/07/10 11:28:08;;;;;;;6.83;4.20;;;18.70;69.80;;;;;;5089993;28;20442;-50
2022/07/10 11:30:49;;;;;;;4.67;4.10;;;18.60;71.00;;;;;;5088094;28;20427;-53
2022/07/10 11:33:15;;;;;;;5.33;3.40;;;18.50;72.40;;;;;;5088120;28;20450;-52
2022/07/10 11:35:44;;;;;;;4.27;3.90;;;18.50;73.60;;;;;;5088940;28;20410;-53
2022/07/10 11:38:10;;;;;;;4.43;4.10;;;18.80;73.60;;;;;;5082967;28;20426;-49
2022/07/10 11:40:37;;;;;;;4.47;3.70;;;19.00;73.90;;;;;;5088844;28;20407;-54
2022/07/10 11:43:05;;;;;;;4.37;3.97;;;19.10;73.10;;;;;;5083170;28;20184;-53
2022/07/10 11:45:33;;;;;;;4.80;3.93;;;19.30;69.80;;;;;;5086714;28;20967;-51
2022/07/10 11:47:59;;;;;;;4.00;3.60;;;19.30;65.00;;;;;;5077591;28;20534;-52
2022/07/10 11:50:26;;;;;;;3.93;3.70;;;19.30;66.90;;;;;;5085035;28;20423;-51
2022/07/10 11:52:53;;;;;;;4.07;3.67;;;19.70;65.90;;;;;;5086429;28;20480;-50
2022/07/10 11:55:21;;;;;;;4.23;3.70;;;20.20;64.60;;;;;;5080013;28;20427;-53
2022/07/10 11:57:51;;;;;;;5.47;4.13;;;20.60;63.60;;;;;;5080333;28;20451;-55
2022/07/10 12:00:29;;;;;;;6.33;3.63;;;21.10;59.30;;;;;;5074611;28;20476;-51
2022/07/10 12:02:56;;;;;;;4.33;3.53;;;21.50;59.40;;;;;;5083822;28;20924;-51
2022/07/10 12:05:33;;;;;;;4.07;3.57;;;21.40;57.70;;;;;;5085287;28;20963;-53
2022/07/10 12:07:59;;;;;;;5.83;3.70;;;21.20;57.60;;;;;;5080714;28;20443;-53
2022/07/10 12:10:29;;;;;;;4.37;3.97;;;20.80;58.50;;;;;;5088883;28;20432;-54
2022/07/10 12:13:15;;;;;;;3.67;3.37;;;20.50;59.80;;;;;;5085482;28;20177;-51
2022/07/10 12:15:45;;;;;;;3.90;3.50;;;20.10;60.60;;;;;;5086075;28;20407;-55
2022/07/10 12:18:21;;;;;;;4.87;4.43;;;19.60;62.30;;;;;;5087793;28;21127;-53
2022/07/10 12:20:49;;;;;;;3.77;3.40;;;19.10;63.80;;;;;;5085356;28;20407;-53
2022/07/10 12:23:16;;;;;;;4.50;4.10;;;18.80;68.10;;;;;;5086419;28;20454;-54
2022/07/10 12:25:46;;;;;;;5.50;3.90;;;18.70;68.80;;;;;;5087047;28;20434;-53
2022/07/10 12:28:12;;;;;;;5.70;4.53;;;18.60;69.90;;;;;;5077449;28;20428;-54
2022/07/10 12:30:40;;;;;;;3.70;3.40;;;18.50;71.60;;;;;;5085400;28;20905;-51
2022/07/10 12:33:09;;;;;;;4.50;3.30;;;18.30;71.70;;;;;;5083810;28;21134;-48
2022/07/10 12:35:50;;;;;;;6.30;3.93;;;18.20;73.60;;;;;;5087873;28;20790;-49
2022/07/10 12:38:26;;;;;;;4.60;4.30;;;18.10;72.70;;;;;;5083656;28;20939;-49
2022/07/10 12:41:09;;;;;;;5.60;4.10;;;18.10;71.50;;;;;;5085408;28;20436;-51
2022/07/10 12:43:35;;;;;;;3.87;3.57;;;18.10;70.20;;;;;;5087346;28;20509;-50
2022/07/10 12:46:18;;;;;;;4.97;3.83;;;18.00;70.50;;;;;;5083779;28;20461;-48
2022/07/10 12:49:07;;;;;;;4.57;4.17;;;18.10;71.30;;;;;;5085551;28;20446;-51
2022/07/10 12:51:33;;;;;;;5.00;3.90;;;18.30;71.40;;;;;;5086299;28;20477;-48
2022/07/10 12:53:59;;;;;;;4.40;4.10;;;18.40;71.40;;;;;;5090217;28;20430;-49
2022/07/10 12:56:38;;;;;;;4.47;4.03;;;18.60;70.00;;;;;;5087503;28;20492;-51
2022/07/10 12:59:13;;;;;;;5.97;4.20;;;18.50;69.90;;;;;;5086731;28;20398;-48
2022/07/10 13:01:41;;;;;;;4.77;3.83;;;18.60;70.90;;;;;;5098435;28;20507;-49
2022/07/10 13:04:08;;;;;;;4.07;3.77;;;18.80;68.50;;;;;;5087793;28;20403;-51